createdAt,value
2022-11-27T00:00:27.414Z,97.83
2022-11-27T00:01:34.649Z,97.36
2022-11-27T00:02:40.585Z,97.52
2022-11-27T00:03:45.330Z,97.34
2022-11-27T00:04:48.056Z,97.45
2022-11-27T00:05:56.145Z,97.27
2022-11-27T00:06:58.814Z,97.21
2022-11-27T00:08:02.749Z,97.02
2022-11-27T00:09:07.166Z,97.13
2022-11-27T00:10:13.197Z,97.41
2022-11-27T00:11:17.515Z,97.15
2022-11-27T00:12:21.196Z,97.19
2022-11-27T00:13:23.962Z,97.52
2022-11-27T00:14:27.710Z,97.55
2022-11-27T00:15:30.384Z,97.38
2022-11-27T00:16:34.481Z,97.23
2022-11-27T00:17:37.244Z,97.60
2022-11-27T00:18:41.097Z,97.62
2022-11-27T00:19:45.006Z,97.64
2022-11-27T00:20:47.653Z,97.64
2022-11-27T00:21:51.416Z,97.56
2022-11-27T00:22:54.135Z,97.47
2022-11-27T00:23:59.534Z,97.13
2022-11-27T00:25:02.209Z,97.35
2022-11-27T00:26:08.537Z,97.39
2022-11-27T00:27:12.269Z,97.69
2022-11-27T00:28:14.996Z,97.44
2022-11-27T00:29:18.734Z,97.25
2022-11-27T00:30:21.434Z,97.61
2022-11-27T00:31:29.464Z,97.55
2022-11-27T00:32:32.231Z,97.53
2022-11-27T00:33:37.670Z,97.62
2022-11-27T00:34:40.659Z,97.60
2022-11-27T00:35:44.602Z,97.67
2022-11-27T00:36:48.543Z,97.68
2022-11-27T00:37:51.272Z,97.73
2022-11-27T00:38:55.030Z,97.66
2022-11-27T00:39:58.892Z,97.62
2022-11-27T00:41:07.834Z,97.95
2022-11-27T00:42:11.604Z,97.98
2022-11-27T00:43:14.454Z,97.60
2022-11-27T00:44:18.172Z,97.71
2022-11-27T00:45:20.843Z,97.86
2022-11-27T00:46:29.009Z,97.59
2022-11-27T00:47:33.103Z,97.60
2022-11-27T00:48:36.228Z,97.80
2022-11-27T00:49:39.919Z,97.83
2022-11-27T00:50:42.673Z,97.59
2022-11-27T00:51:46.372Z,97.60
2022-11-27T00:52:49.092Z,97.50
2022-11-27T00:53:53.190Z,97.52
2022-11-27T00:54:55.884Z,97.46
2022-11-27T00:55:59.864Z,97.19
2022-11-27T00:57:05.606Z,97.67
2022-11-27T00:58:08.351Z,97.39
2022-11-27T00:59:12.477Z,97.30
2022-11-27T01:00:16.264Z,97.11
2022-11-27T01:01:21.989Z,97.36
2022-11-27T01:02:24.868Z,97.30
2022-11-27T01:03:29.458Z,97.24
2022-11-27T01:04:33.255Z,97.25
2022-11-27T01:05:37.503Z,97.25
2022-11-27T01:06:41.310Z,97.12
2022-11-27T01:07:44.010Z,97.14
2022-11-27T01:08:48.352Z,97.09
2022-11-27T01:09:50.993Z,96.94
2022-11-27T01:10:56.525Z,96.80
2022-11-27T01:12:00.280Z,97.38
2022-11-27T01:13:04.322Z,97.40
2022-11-27T01:14:10.472Z,97.41
2022-11-27T01:15:13.428Z,97.16
2022-11-27T01:16:19.944Z,97.18
2022-11-27T01:17:22.642Z,97.11
2022-11-27T01:18:26.334Z,97.22
2022-11-27T01:19:29.010Z,97.25
2022-11-27T01:20:32.714Z,97.31
2022-11-27T01:21:35.641Z,97.27
2022-11-27T01:22:39.374Z,96.98
2022-11-27T01:23:42.062Z,97.32
2022-11-27T01:24:45.775Z,96.91
2022-11-27T01:27:00.219Z,96.81
2022-11-27T01:28:04.624Z,96.98
2022-11-27T01:29:08.524Z,97.19
2022-11-27T01:30:12.328Z,96.83
2022-11-27T01:31:19.150Z,96.79
2022-11-27T01:32:21.924Z,97.10
2022-11-27T01:33:25.790Z,97.19
2022-11-27T01:34:29.452Z,97.08
2022-11-27T01:35:33.827Z,96.99
2022-11-27T01:36:37.632Z,97.29
2022-11-27T01:37:40.343Z,97.02
2022-11-27T01:38:44.377Z,97.01
2022-11-27T01:39:47.033Z,97.15
2022-11-27T01:40:50.905Z,96.95
2022-11-27T01:41:54.633Z,97.24
2022-11-27T01:42:57.374Z,97.38
2022-11-27T01:44:03.913Z,97.46
2022-11-27T01:45:09.364Z,97.65
2022-11-27T01:46:19.035Z,97.51
2022-11-27T01:47:39.595Z,97.25
2022-11-27T01:48:42.233Z,97.42
2022-11-27T01:49:48.494Z,97.27
2022-11-27T01:50:52.673Z,97.38
2022-11-27T01:51:58.072Z,96.96
2022-11-27T01:53:04.133Z,97.03
2022-11-27T01:54:08.162Z,97.00
2022-11-27T01:55:19.060Z,97.31
2022-11-27T01:56:22.562Z,97.25
2022-11-27T01:57:28.897Z,97.18
2022-11-27T01:58:33.981Z,96.89
2022-11-27T01:59:38.422Z,97.05
2022-11-27T02:00:42.784Z,97.22
2022-11-27T02:01:45.595Z,97.22
2022-11-27T02:02:49.623Z,97.17
2022-11-27T02:03:52.869Z,97.10
2022-11-27T02:04:56.843Z,97.34
2022-11-27T02:05:59.512Z,97.54
2022-11-27T02:07:03.275Z,97.49
2022-11-27T02:08:08.764Z,97.38
2022-11-27T02:09:12.504Z,97.35
2022-11-27T02:10:16.324Z,97.14
2022-11-27T02:11:24.995Z,97.32
2022-11-27T02:12:30.211Z,97.11
2022-11-27T02:13:36.254Z,97.36
2022-11-27T02:14:49.983Z,97.37
2022-11-27T02:16:00.770Z,97.46
2022-11-27T02:17:06.642Z,97.37
2022-11-27T02:18:15.262Z,97.21
2022-11-27T02:19:28.883Z,97.59
2022-11-27T02:20:41.334Z,97.52
2022-11-27T02:21:48.933Z,97.36
2022-11-27T02:23:04.201Z,97.17
2022-11-27T02:24:36.928Z,97.35
2022-11-27T02:25:45.094Z,97.25
2022-11-27T02:27:49.185Z,97.21
2022-11-27T02:29:03.165Z,97.26
2022-11-27T02:30:08.872Z,97.44
2022-11-27T02:31:14.529Z,97.87
2022-11-27T02:32:24.073Z,97.73
2022-11-27T02:33:27.773Z,97.77
2022-11-27T02:34:36.043Z,97.68
2022-11-27T02:35:43.994Z,97.58
2022-11-27T02:36:50.932Z,97.79
2022-11-27T02:37:59.723Z,97.49
2022-11-27T02:39:05.474Z,97.46
2022-11-27T02:40:12.424Z,97.63
2022-11-27T02:41:19.742Z,97.22
2022-11-27T02:42:23.794Z,97.47
2022-11-27T02:43:30.878Z,97.08
2022-11-27T02:44:37.965Z,97.27
2022-11-27T02:45:44.354Z,97.27
2022-11-27T02:46:47.466Z,97.32
2022-11-27T02:47:52.145Z,97.16
2022-11-27T02:48:59.053Z,97.38
2022-11-27T02:50:02.755Z,97.41
2022-11-27T02:51:07.633Z,97.14
2022-11-27T02:52:12.866Z,97.47
2022-11-27T02:53:19.523Z,97.32
2022-11-27T02:54:25.843Z,97.32
2022-11-27T02:55:32.797Z,97.41
2022-11-27T02:56:35.856Z,97.55
2022-11-27T02:57:40.877Z,97.44
2022-11-27T02:58:43.545Z,97.30
2022-11-27T02:59:49.293Z,97.22
2022-11-27T03:00:52.076Z,97.12
2022-11-27T03:01:59.010Z,97.19
2022-11-27T03:03:04.805Z,97.30
2022-11-27T03:04:11.896Z,97.21
2022-11-27T03:05:19.125Z,96.93
2022-11-27T03:06:26.720Z,96.97
2022-11-27T03:07:33.551Z,97.16
2022-11-27T03:08:40.277Z,96.87
2022-11-27T03:09:44.937Z,96.63
2022-11-27T03:10:53.096Z,96.86
2022-11-27T03:11:57.209Z,97.17
2022-11-27T03:13:01.973Z,97.02
2022-11-27T03:14:07.493Z,96.85
2022-11-27T03:15:13.194Z,97.06
2022-11-27T03:16:20.050Z,97.16
2022-11-27T03:17:37.423Z,97.13
2022-11-27T03:18:43.174Z,96.68
2022-11-27T03:19:51.352Z,96.25
2022-11-27T03:20:59.874Z,97.00
2022-11-27T03:22:04.601Z,96.63
2022-11-27T03:23:08.373Z,96.87
2022-11-27T03:24:12.292Z,96.60
2022-11-27T03:25:16.899Z,96.98
2022-11-27T03:26:19.700Z,96.75
2022-11-27T03:27:26.814Z,97.06
2022-11-27T03:28:30.005Z,96.92
2022-11-27T03:29:37.737Z,97.04
2022-11-27T03:30:42.393Z,96.99
2022-11-27T03:31:46.295Z,97.10
2022-11-27T03:32:49.013Z,97.25
2022-11-27T03:33:53.030Z,97.11
2022-11-27T03:34:56.099Z,97.38
2022-11-27T03:35:59.934Z,97.14
2022-11-27T03:37:02.595Z,96.92
2022-11-27T03:38:06.335Z,97.02
2022-11-27T03:39:09.194Z,96.97
2022-11-27T03:40:13.954Z,97.02
2022-11-27T03:41:21.234Z,97.05
2022-11-27T03:42:29.174Z,97.30
2022-11-27T03:43:36.345Z,97.09
2022-11-27T03:44:44.492Z,97.54
2022-11-27T03:45:54.487Z,97.15
2022-11-27T03:47:04.572Z,97.20
2022-11-27T03:48:19.075Z,97.28
2022-11-27T03:49:26.426Z,97.40
2022-11-27T03:50:37.104Z,97.28
2022-11-27T03:51:43.899Z,97.21
2022-11-27T03:52:54.444Z,97.19
2022-11-27T03:54:01.033Z,97.78
2022-11-27T03:55:10.656Z,97.74
2022-11-27T03:56:19.625Z,97.69
2022-11-27T03:57:26.081Z,97.38
2022-11-27T03:58:35.515Z,97.43
2022-11-27T03:59:40.605Z,97.47
2022-11-27T04:00:45.572Z,97.26
2022-11-27T04:01:49.830Z,97.37
2022-11-27T04:02:54.564Z,97.06
2022-11-27T04:03:57.433Z,97.46
2022-11-27T04:05:01.291Z,97.23
2022-11-27T04:06:05.426Z,97.01
2022-11-27T04:07:08.155Z,97.58
2022-11-27T04:08:11.843Z,97.49
2022-11-27T04:09:14.490Z,97.20
2022-11-27T04:10:18.278Z,97.15
2022-11-27T04:11:22.023Z,97.06
2022-11-27T04:12:24.666Z,97.08
2022-11-27T04:13:28.363Z,97.00
2022-11-27T04:14:31.034Z,96.69
2022-11-27T04:15:34.733Z,96.80
2022-11-27T04:16:37.534Z,96.67
2022-11-27T04:17:42.746Z,96.81
2022-11-27T04:18:45.434Z,96.89
2022-11-27T04:19:49.104Z,96.97
2022-11-27T04:20:51.775Z,96.60
2022-11-27T04:21:55.758Z,96.85
2022-11-27T04:22:58.535Z,96.92
2022-11-27T04:24:02.262Z,96.87
2022-11-27T04:25:05.957Z,96.92
2022-11-27T04:26:09.763Z,96.85
2022-11-27T04:27:12.554Z,96.88
2022-11-27T04:28:17.737Z,96.48
2022-11-27T04:29:20.408Z,96.38
2022-11-27T04:30:24.373Z,96.64
2022-11-27T04:31:27.140Z,96.67
2022-11-27T04:32:31.015Z,96.46
2022-11-27T04:33:35.158Z,96.73
2022-11-27T04:34:39.138Z,96.62
2022-11-27T04:35:42.078Z,96.79
2022-11-27T04:36:46.416Z,96.79
2022-11-27T04:37:49.023Z,96.83
2022-11-27T04:38:52.774Z,96.91
2022-11-27T04:39:55.414Z,96.54
2022-11-27T04:40:59.375Z,96.93
2022-11-27T04:42:02.022Z,96.68
2022-11-27T04:43:05.764Z,96.93
2022-11-27T04:44:08.466Z,97.17
2022-11-27T04:45:12.662Z,96.72
2022-11-27T04:46:15.370Z,96.78
2022-11-27T04:47:19.192Z,96.93
2022-11-27T04:48:21.872Z,97.06
2022-11-27T04:49:26.991Z,97.09
2022-11-27T04:50:29.671Z,97.39
2022-11-27T04:51:33.425Z,97.06
2022-11-27T04:52:36.138Z,97.13
2022-11-27T04:53:39.923Z,96.92
2022-11-27T04:54:42.749Z,97.02
2022-11-27T04:55:46.613Z,97.32
2022-11-27T04:56:49.295Z,97.45
2022-11-27T04:57:53.015Z,97.04
2022-11-27T04:58:55.759Z,97.18
2022-11-27T04:59:59.502Z,97.08
2022-11-27T05:01:02.284Z,96.76
2022-11-27T05:02:06.290Z,96.75
2022-11-27T05:03:08.943Z,96.76
2022-11-27T05:04:12.832Z,97.25
2022-11-27T05:05:17.564Z,97.06
2022-11-27T05:06:22.866Z,96.97
2022-11-27T05:07:25.726Z,96.83
2022-11-27T05:08:31.095Z,97.27
2022-11-27T05:09:33.761Z,97.21
2022-11-27T05:10:37.443Z,96.92
2022-11-27T05:11:40.211Z,96.77
2022-11-27T05:12:43.929Z,96.77
2022-11-27T05:13:46.613Z,96.93
2022-11-27T05:14:50.314Z,96.85
2022-11-27T05:15:52.988Z,96.78
2022-11-27T05:16:58.065Z,96.83
2022-11-27T05:18:00.754Z,96.75
2022-11-27T05:19:04.539Z,96.88
2022-11-27T05:20:09.514Z,96.99
2022-11-27T05:21:13.530Z,96.70
2022-11-27T05:22:17.295Z,96.74
2022-11-27T05:23:19.982Z,96.84
2022-11-27T05:24:26.638Z,96.80
2022-11-27T05:25:29.352Z,96.71
2022-11-27T05:26:33.125Z,96.83
2022-11-27T05:27:36.925Z,96.78
2022-11-27T05:28:39.544Z,97.03
2022-11-27T05:29:43.886Z,96.73
2022-11-27T05:30:46.744Z,96.69
2022-11-27T05:31:50.706Z,96.63
2022-11-27T05:32:54.594Z,96.35
2022-11-27T05:33:57.336Z,96.59
2022-11-27T05:35:01.101Z,96.93
2022-11-27T05:36:03.893Z,96.99
2022-11-27T05:37:09.452Z,96.75
2022-11-27T05:38:12.830Z,96.84
2022-11-27T05:39:16.664Z,96.73
2022-11-27T05:40:19.563Z,96.73
2022-11-27T05:41:23.412Z,96.73
2022-11-27T05:42:26.029Z,96.48
2022-11-27T05:43:29.824Z,97.13
2022-11-27T05:44:32.471Z,96.82
2022-11-27T05:45:36.232Z,96.56
2022-11-27T05:46:38.908Z,96.81
2022-11-27T05:47:42.675Z,96.54
2022-11-27T05:48:45.404Z,96.52
2022-11-27T05:49:49.144Z,96.43
2022-11-27T05:50:51.765Z,96.46
2022-11-27T05:51:55.534Z,96.97
2022-11-27T05:52:59.687Z,96.62
2022-11-27T05:54:03.366Z,96.73
2022-11-27T05:55:07.144Z,96.65
2022-11-27T05:56:12.634Z,96.53
2022-11-27T05:57:16.327Z,96.36
2022-11-27T05:58:19.242Z,97.02
2022-11-27T05:59:23.056Z,96.80
2022-11-27T06:00:27.183Z,96.42
2022-11-27T06:01:30.939Z,96.85
2022-11-27T06:02:33.816Z,96.67
2022-11-27T06:03:39.265Z,96.97
2022-11-27T06:04:43.171Z,96.95
2022-11-27T06:05:45.992Z,96.99
2022-11-27T06:06:49.724Z,97.26
2022-11-27T06:07:52.503Z,96.89
2022-11-27T06:08:57.841Z,96.93
2022-11-27T06:10:00.453Z,96.78
2022-11-27T06:11:08.691Z,96.86
2022-11-27T06:12:11.350Z,97.09
2022-11-27T06:13:15.574Z,97.13
2022-11-27T06:14:18.285Z,97.21
2022-11-27T06:15:21.985Z,97.42
2022-11-27T06:16:26.204Z,97.41
2022-11-27T06:17:29.953Z,97.08
2022-11-27T06:18:32.725Z,97.20
2022-11-27T06:19:36.531Z,97.13
2022-11-27T06:20:43.768Z,97.18
2022-11-27T06:21:48.473Z,97.18
2022-11-27T06:22:51.131Z,97.03
2022-11-27T06:23:57.759Z,97.27
2022-11-27T06:25:00.414Z,97.30
2022-11-27T06:26:17.583Z,97.39
2022-11-27T06:27:20.264Z,97.20
2022-11-27T06:28:23.982Z,97.62
2022-11-27T06:29:26.684Z,97.85
2022-11-27T06:30:30.414Z,97.30
2022-11-27T06:31:33.617Z,97.95
2022-11-27T06:32:37.534Z,97.57
2022-11-27T06:33:40.192Z,97.93
2022-11-27T06:34:43.905Z,97.86
2022-11-27T06:35:46.555Z,97.82
2022-11-27T06:36:50.811Z,97.72
2022-11-27T06:37:53.535Z,97.82
2022-11-27T06:38:58.754Z,98.00
2022-11-27T06:40:01.443Z,97.61
2022-11-27T06:41:07.315Z,97.42
2022-11-27T06:42:09.943Z,97.70
2022-11-27T06:43:13.714Z,97.59
2022-11-27T06:44:16.414Z,97.37
2022-11-27T06:45:20.135Z,97.22
2022-11-27T06:46:23.822Z,98.07
2022-11-27T06:47:27.533Z,97.75
2022-11-27T06:48:30.562Z,97.83
2022-11-27T06:49:34.294Z,97.88
2022-11-27T06:50:36.924Z,98.07
2022-11-27T06:51:40.663Z,97.72
2022-11-27T06:52:43.345Z,98.00
2022-11-27T06:53:47.081Z,97.73
2022-11-27T06:54:51.132Z,97.77
2022-11-27T06:55:54.842Z,97.44
2022-11-27T06:56:58.672Z,97.69
2022-11-27T06:58:02.372Z,97.52
2022-11-27T06:59:06.318Z,97.45
2022-11-27T07:00:09.985Z,97.32
2022-11-27T07:01:14.630Z,97.17
2022-11-27T07:02:17.563Z,97.48
2022-11-27T07:03:21.387Z,97.31
2022-11-27T07:04:33.084Z,97.64
2022-11-27T07:05:40.489Z,97.99
2022-11-27T07:06:45.181Z,97.72
2022-11-27T07:07:47.891Z,97.75
2022-11-27T07:08:51.943Z,98.20
2022-11-27T07:09:56.134Z,98.10
2022-11-27T07:11:03.352Z,97.98
2022-11-27T07:12:06.454Z,97.92
2022-11-27T07:13:10.175Z,98.17
2022-11-27T07:14:14.002Z,98.25
2022-11-27T07:15:16.847Z,98.51
2022-11-27T07:16:20.631Z,98.53
2022-11-27T07:17:24.446Z,98.63
2022-11-27T07:18:27.095Z,98.59
2022-11-27T07:19:30.815Z,99.09
2022-11-27T07:20:33.525Z,99.11
2022-11-27T07:21:38.527Z,99.04
2022-11-27T07:22:41.264Z,98.88
2022-11-27T07:23:46.075Z,99.00
2022-11-27T07:24:48.701Z,98.77
2022-11-27T07:25:53.867Z,99.08
2022-11-27T07:26:56.638Z,98.67
2022-11-27T07:28:00.360Z,98.60
2022-11-27T07:29:03.194Z,99.03
2022-11-27T07:30:08.463Z,98.86
2022-11-27T07:31:11.624Z,98.94
2022-11-27T07:32:15.503Z,98.83
2022-11-27T07:33:18.283Z,99.37
2022-11-27T07:34:22.144Z,98.97
2022-11-27T07:35:24.804Z,99.21
2022-11-27T07:36:30.609Z,99.13
2022-11-27T07:37:33.682Z,99.09
2022-11-27T07:38:37.453Z,99.01
2022-11-27T07:40:01.238Z,98.68
2022-11-27T07:41:06.444Z,98.29
2022-11-27T07:43:35.214Z,98.40
2022-11-27T07:44:38.121Z,98.54
2022-11-27T07:45:42.060Z,98.54
2022-11-27T07:46:45.791Z,98.79
2022-11-27T07:47:48.503Z,98.85
2022-11-27T07:48:52.559Z,99.03
2022-11-27T07:49:55.758Z,99.06
2022-11-27T07:50:59.789Z,99.06
2022-11-27T07:52:03.435Z,98.89
2022-11-27T07:53:06.096Z,98.99
2022-11-27T07:54:09.783Z,98.84
2022-11-27T07:55:12.454Z,98.71
2022-11-27T07:56:18.032Z,98.71
2022-11-27T07:57:20.653Z,98.54
2022-11-27T07:58:24.343Z,98.17
2022-11-27T07:59:27.160Z,97.88
2022-11-27T08:00:30.926Z,98.01
2022-11-27T08:01:34.764Z,97.97
2022-11-27T08:02:37.426Z,98.01
2022-11-27T08:03:41.117Z,97.93
2022-11-27T08:04:44.174Z,97.72
2022-11-27T08:05:48.184Z,97.67
2022-11-27T08:06:51.873Z,97.72
2022-11-27T08:07:54.673Z,97.52
2022-11-27T08:08:58.994Z,97.61
2022-11-27T08:10:01.691Z,96.99
2022-11-27T08:11:05.379Z,97.42
2022-11-27T08:12:10.544Z,97.47
2022-11-27T08:13:13.339Z,96.90
2022-11-27T08:14:19.372Z,97.19
2022-11-27T08:15:22.024Z,97.09
2022-11-27T08:16:25.870Z,97.05
2022-11-27T08:17:28.765Z,97.19
2022-11-27T08:18:32.423Z,97.22
2022-11-27T08:19:36.262Z,97.22
2022-11-27T08:20:39.055Z,97.20
2022-11-27T08:21:42.792Z,97.29
2022-11-27T08:22:45.445Z,97.23
2022-11-27T08:23:49.344Z,97.08
2022-11-27T08:24:53.069Z,96.90
2022-11-27T08:25:55.750Z,96.97
2022-11-27T08:26:59.525Z,96.83
2022-11-27T08:28:03.672Z,97.13
2022-11-27T08:29:07.667Z,97.01
2022-11-27T08:30:10.902Z,97.24
2022-11-27T08:31:15.814Z,97.01
2022-11-27T08:32:19.546Z,96.93
2022-11-27T08:33:22.214Z,96.95
2022-11-27T08:34:27.033Z,96.98
2022-11-27T08:35:30.865Z,96.91
2022-11-27T08:36:34.909Z,96.71
2022-11-27T08:37:37.659Z,96.46
2022-11-27T08:38:41.879Z,96.77
2022-11-27T08:39:45.615Z,96.76
2022-11-27T08:40:54.726Z,96.69
2022-11-27T08:41:58.624Z,96.61
2022-11-27T08:43:01.298Z,96.35
2022-11-27T08:44:09.265Z,96.55
2022-11-27T08:45:12.287Z,96.28
2022-11-27T08:46:16.067Z,96.24
2022-11-27T08:47:18.762Z,96.29
2022-11-27T08:48:23.033Z,96.35
2022-11-27T08:49:26.753Z,96.36
2022-11-27T08:50:29.440Z,96.49
2022-11-27T08:51:33.115Z,96.44
2022-11-27T08:52:36.093Z,95.87
2022-11-27T08:53:40.265Z,95.84
2022-11-27T08:54:43.288Z,95.61
2022-11-27T08:55:47.423Z,95.43
2022-11-27T08:56:53.175Z,96.02
2022-11-27T08:57:56.093Z,95.83
2022-11-27T08:59:00.012Z,95.98
2022-11-27T09:00:05.636Z,96.26
2022-11-27T09:01:12.711Z,95.98
2022-11-27T09:02:16.592Z,95.88
2022-11-27T09:03:19.225Z,95.60
2022-11-27T09:04:22.979Z,95.44
2022-11-27T09:05:25.793Z,95.18
2022-11-27T09:06:31.013Z,95.46
2022-11-27T09:07:33.725Z,95.50
2022-11-27T09:08:37.503Z,95.76
2022-11-27T09:09:41.517Z,95.63
2022-11-27T09:10:44.171Z,95.66
2022-11-27T09:11:48.592Z,95.60
2022-11-27T09:12:51.406Z,95.34
2022-11-27T09:13:55.282Z,95.70
2022-11-27T09:14:58.042Z,95.59
2022-11-27T09:16:03.162Z,95.22
2022-11-27T09:17:05.902Z,95.33
2022-11-27T09:18:09.682Z,95.14
2022-11-27T09:19:12.279Z,95.19
2022-11-27T09:20:16.270Z,94.91
2022-11-27T09:21:22.077Z,94.72
2022-11-27T09:22:24.804Z,94.89
2022-11-27T09:23:28.664Z,94.63
2022-11-27T09:24:32.383Z,94.60
2022-11-27T09:25:35.124Z,95.05
2022-11-27T09:26:38.885Z,95.11
2022-11-27T09:27:41.555Z,94.66
2022-11-27T09:28:45.923Z,94.85
2022-11-27T09:29:49.814Z,95.05
2022-11-27T09:30:55.368Z,94.54
2022-11-27T09:32:00.642Z,95.21
2022-11-27T09:33:03.755Z,94.97
2022-11-27T09:34:07.634Z,95.45
2022-11-27T09:35:10.371Z,94.97
2022-11-27T09:36:15.956Z,95.18
2022-11-27T09:37:19.726Z,94.99
2022-11-27T09:38:23.830Z,95.19
2022-11-27T09:39:30.684Z,95.56
2022-11-27T09:40:34.368Z,95.31
2022-11-27T09:41:42.422Z,95.40
2022-11-27T09:42:50.844Z,94.53
2022-11-27T09:43:57.057Z,94.68
2022-11-27T09:45:01.035Z,94.53
2022-11-27T09:46:08.493Z,94.67
2022-11-27T09:47:18.016Z,94.81
2022-11-27T09:48:23.781Z,94.53
2022-11-27T09:49:30.494Z,94.07
2022-11-27T09:50:43.017Z,94.47
2022-11-27T09:51:57.529Z,93.88
2022-11-27T09:53:07.790Z,93.71
2022-11-27T09:54:17.544Z,93.84
2022-11-27T09:55:25.913Z,93.86
2022-11-27T09:56:30.424Z,93.58
2022-11-27T09:57:38.843Z,93.62
2022-11-27T09:58:42.799Z,93.13
2022-11-27T09:59:50.772Z,93.11
2022-11-27T10:00:53.523Z,92.86
2022-11-27T10:01:58.750Z,92.47
2022-11-27T10:03:05.054Z,92.66
2022-11-27T10:04:10.434Z,92.76
2022-11-27T10:05:19.267Z,93.04
2022-11-27T10:06:28.334Z,92.97
2022-11-27T10:07:39.198Z,92.80
2022-11-27T10:08:47.859Z,92.99
2022-11-27T10:10:10.535Z,92.59
2022-11-27T10:11:21.601Z,92.75
2022-11-27T10:12:31.024Z,92.21
2022-11-27T10:13:52.094Z,92.36
2022-11-27T10:15:04.210Z,92.36
2022-11-27T10:16:13.854Z,91.88
2022-11-27T10:17:20.653Z,92.20
2022-11-27T10:18:31.884Z,91.93
2022-11-27T10:19:44.329Z,91.50
2022-11-27T10:20:50.422Z,91.52
2022-11-27T10:21:56.959Z,91.87
2022-11-27T10:23:04.646Z,91.88
2022-11-27T10:24:15.051Z,91.41
2022-11-27T10:25:21.106Z,91.99
2022-11-27T10:26:29.942Z,91.85
2022-11-27T10:27:38.985Z,91.65
2022-11-27T10:28:47.465Z,91.32
2022-11-27T10:29:54.164Z,91.29
2022-11-27T10:31:02.412Z,91.45
2022-11-27T10:32:26.690Z,91.56
2022-11-27T10:33:44.381Z,91.61
2022-11-27T10:34:50.484Z,91.36
2022-11-27T10:35:53.474Z,91.46
2022-11-27T10:36:58.151Z,91.25
2022-11-27T10:38:07.241Z,91.18
2022-11-27T10:39:15.513Z,91.21
2022-11-27T10:40:22.892Z,91.56
2022-11-27T10:43:01.423Z,91.62
2022-11-27T10:44:19.012Z,91.21
2022-11-27T10:45:25.470Z,90.79
2022-11-27T10:46:31.162Z,91.49
2022-11-27T10:47:35.094Z,90.77
2022-11-27T10:48:39.274Z,90.85
2022-11-27T10:49:44.195Z,90.58
2022-11-27T10:50:49.113Z,91.06
2022-11-27T10:51:52.815Z,90.97
2022-11-27T10:52:59.595Z,91.11
2022-11-27T10:54:03.053Z,91.13
2022-11-27T10:55:19.163Z,91.05
2022-11-27T10:56:42.973Z,90.42
2022-11-27T10:57:55.203Z,91.00
2022-11-27T10:59:00.690Z,91.68
2022-11-27T11:00:10.722Z,91.40
2022-11-27T11:01:16.153Z,91.34
2022-11-27T11:02:31.086Z,91.55
2022-11-27T11:03:35.895Z,91.51
2022-11-27T11:04:41.133Z,90.72
2022-11-27T11:06:19.390Z,91.09
2022-11-27T11:07:26.715Z,90.95
2022-11-27T11:08:30.264Z,90.48
2022-11-27T11:09:36.293Z,90.31
2022-11-27T11:10:44.123Z,90.63
2022-11-27T11:11:47.955Z,90.74
2022-11-27T11:12:50.712Z,90.55
2022-11-27T11:13:55.559Z,90.56
2022-11-27T11:15:01.903Z,90.04
2022-11-27T11:16:10.926Z,89.69
2022-11-27T11:17:18.754Z,88.95
2022-11-27T11:18:22.631Z,89.46
2022-11-27T11:19:36.711Z,89.13
2022-11-27T11:20:49.624Z,89.96
2022-11-27T11:21:53.852Z,89.71
2022-11-27T11:22:56.594Z,89.22
2022-11-27T11:24:03.503Z,88.96
2022-11-27T11:25:06.593Z,88.35
2022-11-27T11:26:27.493Z,88.95
2022-11-27T11:27:32.741Z,89.30
2022-11-27T11:28:42.503Z,89.43
2022-11-27T11:29:50.423Z,89.44
2022-11-27T11:31:03.991Z,88.46
2022-11-27T11:32:12.835Z,89.15
2022-11-27T11:33:15.798Z,89.34
2022-11-27T11:34:23.071Z,88.52
2022-11-27T11:35:28.985Z,88.15
2022-11-27T11:36:34.242Z,87.95
2022-11-27T11:37:39.764Z,88.41
2022-11-27T11:38:45.817Z,87.98
2022-11-27T11:39:56.031Z,87.78
2022-11-27T11:41:02.833Z,87.38
2022-11-27T11:42:11.743Z,87.73
2022-11-27T11:43:25.566Z,87.87
2022-11-27T11:44:34.247Z,88.03
2022-11-27T11:45:45.454Z,87.98
2022-11-27T11:46:54.014Z,88.38
2022-11-27T11:47:59.135Z,87.36
2022-11-27T11:49:06.412Z,87.89
2022-11-27T11:50:14.353Z,87.88
2022-11-27T11:51:20.558Z,88.06
2022-11-27T11:52:47.102Z,87.66
2022-11-27T11:53:57.395Z,86.59
2022-11-27T11:55:05.926Z,87.19
2022-11-27T11:56:23.834Z,86.83
2022-11-27T11:58:02.835Z,87.33
2022-11-27T11:59:16.316Z,86.43
2022-11-27T12:00:28.283Z,87.41
2022-11-27T12:01:48.033Z,87.22
2022-11-27T12:03:16.522Z,87.33
2022-11-27T12:05:03.687Z,87.06
2022-11-27T12:06:25.764Z,87.21
2022-11-27T12:07:38.928Z,86.90
2022-11-27T12:08:52.890Z,87.20
2022-11-27T12:10:00.145Z,86.60
2022-11-27T12:11:10.301Z,86.18
2022-11-27T12:12:21.671Z,86.50
2022-11-27T12:13:39.015Z,86.42
2022-11-27T12:14:45.571Z,86.51
2022-11-27T12:15:55.439Z,86.06
2022-11-27T12:17:07.386Z,86.32
2022-11-27T12:18:15.094Z,86.62
2022-11-27T12:19:48.501Z,86.50
2022-11-27T12:21:00.793Z,86.41
2022-11-27T12:22:13.173Z,86.47
2022-11-27T12:23:46.445Z,86.16
2022-11-27T12:24:57.096Z,86.49
2022-11-27T12:26:06.826Z,86.48
2022-11-27T12:27:19.475Z,86.71
2022-11-27T12:28:33.054Z,86.19
2022-11-27T12:29:54.929Z,86.26
2022-11-27T12:31:03.162Z,86.72
2022-11-27T12:32:39.335Z,86.62
2022-11-27T12:33:56.202Z,86.42
2022-11-27T12:35:08.463Z,86.28
2022-11-27T12:36:24.610Z,85.71
2022-11-27T12:37:40.873Z,86.21
2022-11-27T12:38:56.131Z,86.46
2022-11-27T12:40:10.784Z,86.53
2022-11-27T12:41:23.892Z,86.42
2022-11-27T12:42:31.037Z,86.66
2022-11-27T12:43:38.658Z,86.00
2022-11-27T12:44:53.337Z,86.48
2022-11-27T12:46:02.093Z,85.91
2022-11-27T12:47:09.971Z,85.88
2022-11-27T12:48:16.640Z,86.14
2022-11-27T12:49:25.051Z,85.96
2022-11-27T12:50:36.823Z,86.13
2022-11-27T12:51:44.758Z,85.74
2022-11-27T12:52:54.409Z,85.87
2022-11-27T12:54:02.870Z,85.69
2022-11-27T12:55:12.486Z,86.27
2022-11-27T12:56:21.181Z,85.73
2022-11-27T12:57:32.156Z,86.15
2022-11-27T12:58:39.644Z,86.21
2022-11-27T12:59:45.618Z,86.46
2022-11-27T13:00:51.556Z,85.80
2022-11-27T13:02:01.117Z,85.73
2022-11-27T13:03:07.054Z,85.52
2022-11-27T13:04:19.996Z,85.61
2022-11-27T13:05:26.313Z,86.34
2022-11-27T13:06:31.854Z,86.13
2022-11-27T13:07:44.589Z,86.34
2022-11-27T13:08:52.624Z,86.37
2022-11-27T13:10:02.460Z,86.18
2022-11-27T13:11:07.928Z,86.41
2022-11-27T13:12:17.866Z,85.72
2022-11-27T13:13:25.728Z,85.57
2022-11-27T13:14:28.904Z,85.89
2022-11-27T13:15:36.184Z,84.97
2022-11-27T13:16:45.364Z,84.92
2022-11-27T13:17:51.962Z,85.61
2022-11-27T13:18:59.524Z,85.13
2022-11-27T13:20:03.957Z,85.68
2022-11-27T13:21:11.092Z,85.43
2022-11-27T13:22:19.809Z,85.53
2022-11-27T13:23:23.567Z,85.69
2022-11-27T13:24:33.366Z,85.68
2022-11-27T13:25:51.353Z,85.57
2022-11-27T13:27:01.282Z,86.06
2022-11-27T13:28:06.424Z,85.79
2022-11-27T13:29:17.589Z,86.19
2022-11-27T13:30:24.107Z,85.67
2022-11-27T13:31:30.648Z,85.81
2022-11-27T13:32:36.387Z,85.79
2022-11-27T13:33:42.325Z,85.53
2022-11-27T13:34:47.412Z,85.56
2022-11-27T13:35:51.242Z,85.93
2022-11-27T13:36:59.194Z,85.91
2022-11-27T13:38:09.384Z,85.64
2022-11-27T13:39:24.387Z,85.55
2022-11-27T13:40:29.815Z,85.88
2022-11-27T13:41:40.145Z,85.78
2022-11-27T13:42:46.784Z,86.07
2022-11-27T13:43:51.047Z,86.10
2022-11-27T13:44:55.869Z,85.15
2022-11-27T13:46:05.469Z,85.81
2022-11-27T13:47:12.458Z,85.22
2022-11-27T13:48:39.428Z,85.21
2022-11-27T13:49:46.601Z,85.22
2022-11-27T13:50:55.686Z,85.48
2022-11-27T13:52:11.435Z,85.50
2022-11-27T13:53:14.124Z,85.11
2022-11-27T13:54:25.918Z,85.29
2022-11-27T13:55:33.383Z,85.74
2022-11-27T13:56:39.475Z,85.56
2022-11-27T13:57:53.233Z,85.45
2022-11-27T13:58:56.071Z,85.43
2022-11-27T14:00:01.565Z,86.02
2022-11-27T14:01:17.527Z,86.19
2022-11-27T14:02:21.429Z,85.45
2022-11-27T14:03:26.166Z,85.73
2022-11-27T14:04:32.275Z,85.93
2022-11-27T14:05:38.275Z,86.10
2022-11-27T14:06:44.305Z,85.70
2022-11-27T14:07:50.239Z,86.33
2022-11-27T14:08:57.398Z,86.23
2022-11-27T14:10:08.644Z,85.70
2022-11-27T14:11:13.300Z,85.75
2022-11-27T14:12:28.231Z,85.70
2022-11-27T14:13:38.523Z,85.75
2022-11-27T14:14:42.513Z,86.35
2022-11-27T14:16:01.774Z,86.26
2022-11-27T14:17:07.963Z,85.96